createdAt,value
2017-06-20T00:00:27.202Z,65.10
2017-06-20T00:02:55.469Z,65.30
2017-06-20T00:05:22.979Z,65.40
2017-06-20T00:07:51.321Z,66.20
2017-06-20T00:10:18.830Z,66.20
2017-06-20T00:12:47.124Z,66.70
2017-06-20T00:15:14.630Z,66.70
2017-06-20T00:17:42.942Z,66.40
2017-06-20T00:20:11.217Z,66.80
2017-06-20T00:22:39.485Z,66.40
2017-06-20T00:25:07.805Z,66.40
2017-06-20T00:27:36.084Z,66.80
2017-06-20T00:30:03.641Z,66.70
2017-06-20T00:32:31.916Z,68.10
2017-06-20T00:35:00.182Z,68.70
2017-06-20T00:37:27.721Z,68.70
2017-06-20T00:39:55.217Z,69.20
2017-06-20T00:42:23.517Z,69.90
2017-06-20T00:44:51.037Z,70.00
2017-06-20T00:47:18.579Z,69.10
2017-06-20T00:49:46.887Z,68.90
2017-06-20T00:52:15.158Z,68.90
2017-06-20T00:54:42.700Z,68.80
2017-06-20T00:57:10.209Z,69.70
2017-06-20T00:59:38.514Z,70.90
2017-06-20T01:02:06.788Z,70.20
2017-06-20T01:04:35.093Z,70.40
2017-06-20T01:07:03.367Z,70.40
2017-06-20T01:09:30.909Z,70.40
2017-06-20T01:11:59.231Z,70.10
2017-06-20T01:14:26.734Z,70.10
2017-06-20T01:16:55.038Z,71.40
2017-06-20T01:19:22.552Z,71.40
2017-06-20T01:21:50.891Z,71.80
2017-06-20T01:24:19.164Z,72.00
2017-06-20T01:26:47.447Z,70.40
2017-06-20T01:29:15.755Z,70.60
2017-06-20T01:31:44.059Z,70.90
2017-06-20T01:34:12.350Z,71.10
2017-06-20T01:36:40.624Z,70.60
2017-06-20T01:39:08.148Z,70.60
2017-06-20T01:41:36.420Z,70.60
2017-06-20T01:44:04.705Z,70.40
2017-06-20T01:46:32.226Z,70.40
2017-06-20T01:49:00.534Z,70.70
2017-06-20T01:51:28.825Z,69.60
2017-06-20T01:53:57.096Z,70.20
2017-06-20T01:56:25.432Z,70.60
2017-06-20T01:58:53.714Z,70.30
2017-06-20T02:01:21.990Z,69.10
2017-06-20T02:03:49.532Z,69.10
2017-06-20T02:06:17.038Z,70.90
2017-06-20T02:08:44.566Z,70.90
2017-06-20T02:11:12.871Z,71.50
2017-06-20T02:13:41.140Z,71.60
2017-06-20T02:16:09.448Z,71.60
2017-06-20T02:18:36.952Z,71.60
2017-06-20T02:21:05.253Z,72.40
2017-06-20T02:23:33.525Z,71.40
2017-06-20T02:26:01.049Z,71.40
2017-06-20T02:28:29.324Z,72.00
2017-06-20T02:30:57.619Z,72.00
2017-06-20T02:33:25.910Z,72.70
2017-06-20T02:35:54.233Z,72.50
2017-06-20T02:38:22.506Z,72.10
2017-06-20T02:40:50.770Z,72.40
2017-06-20T02:43:19.062Z,72.40
2017-06-20T02:45:46.578Z,72.40
2017-06-20T02:48:14.878Z,72.40
2017-06-20T02:50:43.163Z,72.80
2017-06-20T02:53:11.460Z,72.70
2017-06-20T02:55:39.727Z,72.90
2017-06-20T02:58:08.060Z,73.00
2017-06-20T03:00:36.332Z,72.80
2017-06-20T03:03:04.604Z,72.80
2017-06-20T03:05:32.898Z,73.20
2017-06-20T03:08:01.168Z,73.30
2017-06-20T03:10:29.470Z,73.80
2017-06-20T03:12:57.750Z,73.70
2017-06-20T03:15:26.059Z,74.30
2017-06-20T03:17:53.560Z,74.30
2017-06-20T03:20:21.893Z,73.60
2017-06-20T03:22:50.169Z,73.90
2017-06-20T03:25:17.675Z,73.90
2017-06-20T03:27:45.973Z,74.00
2017-06-20T03:30:14.252Z,74.30
2017-06-20T03:32:42.553Z,74.40
2017-06-20T03:35:10.053Z,74.40
2017-06-20T03:37:38.365Z,75.20
2017-06-20T03:40:06.656Z,75.30
2017-06-20T03:42:34.966Z,75.80
2017-06-20T03:45:03.268Z,76.60
2017-06-20T03:47:30.777Z,75.60
2017-06-20T03:49:58.307Z,75.80
2017-06-20T03:52:26.573Z,76.00
2017-06-20T03:54:54.880Z,76.40
2017-06-20T03:57:23.141Z,76.60
2017-06-20T03:59:51.421Z,76.40
2017-06-20T04:02:19.709Z,76.40
2017-06-20T04:04:47.230Z,76.40
2017-06-20T04:07:15.524Z,76.80
2017-06-20T04:09:43.025Z,76.80
2017-06-20T04:12:11.341Z,77.00
2017-06-20T04:14:38.849Z,77.00
2017-06-20T04:17:07.124Z,77.20
2017-06-20T04:19:35.418Z,77.00
2017-06-20T04:22:03.696Z,77.20
2017-06-20T04:24:31.229Z,77.20
2017-06-20T04:26:59.497Z,78.50
2017-06-20T04:29:27.829Z,79.10
2017-06-20T04:31:56.096Z,78.90
2017-06-20T04:34:24.372Z,79.20
2017-06-20T04:36:52.665Z,79.50
2017-06-20T04:39:20.957Z,80.10
2017-06-20T04:41:49.244Z,79.70
2017-06-20T04:44:16.752Z,79.70
2017-06-20T04:46:45.044Z,79.50
2017-06-20T04:49:13.315Z,79.50
2017-06-20T04:51:41.622Z,79.60
2017-06-20T04:54:09.924Z,79.50
2017-06-20T04:56:37.436Z,79.50
2017-06-20T04:59:05.727Z,80.10
2017-06-20T05:01:34.016Z,79.80
2017-06-20T05:04:02.319Z,80.00
2017-06-20T05:06:30.602Z,80.10
2017-06-20T05:08:58.916Z,79.40
2017-06-20T05:11:27.199Z,79.60
2017-06-20T05:13:54.709Z,79.60
2017-06-20T05:16:23.001Z,80.00
2017-06-20T05:18:50.518Z,80.00
2017-06-20T05:21:18.821Z,80.10
2017-06-20T05:23:47.101Z,79.50
2017-06-20T05:26:14.624Z,79.40
2017-06-20T05:28:42.137Z,80.40
2017-06-20T05:31:10.439Z,77.80
2017-06-20T05:33:37.983Z,77.80
2017-06-20T05:36:06.287Z,80.10
2017-06-20T05:38:34.553Z,79.30
2017-06-20T05:41:02.085Z,79.30
2017-06-20T05:43:30.396Z,79.20
2017-06-20T05:45:58.677Z,78.30
2017-06-20T05:48:26.958Z,79.10
2017-06-20T05:50:55.255Z,78.60
2017-06-20T05:53:23.555Z,78.20
2017-06-20T05:55:51.086Z,78.20
2017-06-20T05:58:18.613Z,78.30
2017-06-20T06:00:46.158Z,78.20
2017-06-20T06:03:14.429Z,78.50
2017-06-20T06:05:41.938Z,78.60
2017-06-20T06:08:09.468Z,77.70
2017-06-20T06:10:37.746Z,75.90
2017-06-20T06:13:06.041Z,76.70
2017-06-20T06:15:33.566Z,76.70
2017-06-20T06:18:01.856Z,76.40
2017-06-20T06:20:30.157Z,76.40
2017-06-20T06:22:58.486Z,76.80
2017-06-20T06:25:26.760Z,76.90
2017-06-20T06:27:55.035Z,76.30
2017-06-20T06:30:22.552Z,76.30
2017-06-20T06:32:50.826Z,76.70
2017-06-20T06:35:19.116Z,75.80
2017-06-20T06:37:47.411Z,76.40
2017-06-20T06:40:14.912Z,76.40
2017-06-20T06:42:43.206Z,75.20
2017-06-20T06:45:10.711Z,75.20
2017-06-20T06:47:38.233Z,75.20
2017-06-20T06:50:05.758Z,74.50
2017-06-20T06:52:34.025Z,74.60
2017-06-20T06:55:01.550Z,74.50
2017-06-20T06:57:29.816Z,73.20
2017-06-20T06:59:58.108Z,73.40
2017-06-20T07:02:26.412Z,72.70
2017-06-20T07:04:54.686Z,72.40
2017-06-20T07:07:22.957Z,74.10
2017-06-20T07:09:51.253Z,73.70
2017-06-20T07:12:19.548Z,72.40
2017-06-20T07:14:47.844Z,73.00
2017-06-20T07:17:16.116Z,71.90
2017-06-20T07:19:44.404Z,71.80
2017-06-20T07:22:12.676Z,73.00
2017-06-20T07:24:40.975Z,71.70
2017-06-20T07:27:09.239Z,71.60
2017-06-20T07:29:37.538Z,70.60
2017-06-20T07:32:05.813Z,70.40
2017-06-20T07:34:33.312Z,70.40
2017-06-20T07:37:00.837Z,69.30
2017-06-20T07:39:28.340Z,69.20
2017-06-20T07:41:56.826Z,69.30
2017-06-20T07:44:25.088Z,68.60
2017-06-20T07:46:53.388Z,69.30
2017-06-20T07:49:21.653Z,66.90
2017-06-20T07:51:49.959Z,67.30
2017-06-20T07:54:18.300Z,65.40
2017-06-20T07:56:46.590Z,62.50
2017-06-20T07:59:14.116Z,62.40
2017-06-20T08:01:42.421Z,61.80
2017-06-20T08:04:10.696Z,62.60
2017-06-20T08:06:38.988Z,63.20
2017-06-20T08:09:06.537Z,63.20
2017-06-20T08:11:34.808Z,62.20
2017-06-20T08:14:03.096Z,60.00
2017-06-20T08:16:31.389Z,61.20
2017-06-20T08:18:59.878Z,61.90
2017-06-20T08:21:33.862Z,60.40
2017-06-20T08:24:02.972Z,59.60
2017-06-20T08:26:31.261Z,59.50
2017-06-20T08:28:58.765Z,59.50
2017-06-20T08:31:27.057Z,60.40
2017-06-20T08:33:54.665Z,60.30
2017-06-20T08:36:22.947Z,58.80
2017-06-20T08:38:51.249Z,57.90
2017-06-20T08:41:19.551Z,57.90
2017-06-20T08:43:47.083Z,57.80
2017-06-20T08:46:15.361Z,57.30
2017-06-20T08:48:43.736Z,57.30
2017-06-20T08:51:12.009Z,58.00
2017-06-20T08:53:40.277Z,56.90
2017-06-20T08:56:07.813Z,57.00
2017-06-20T08:58:35.330Z,56.40
2017-06-20T09:01:03.089Z,55.70
2017-06-20T09:03:31.424Z,56.80
2017-06-20T09:05:58.989Z,56.70
2017-06-20T09:08:26.487Z,55.40
2017-06-20T09:10:54.008Z,54.50
2017-06-20T09:13:22.306Z,54.30
2017-06-20T09:15:50.575Z,55.50
2017-06-20T09:18:18.863Z,56.00
2017-06-20T09:20:47.133Z,54.30
2017-06-20T09:23:15.442Z,54.50
2017-06-20T09:25:43.706Z,53.00
2017-06-20T09:28:11.215Z,53.00
2017-06-20T09:30:39.541Z,52.10
2017-06-20T09:33:07.808Z,53.20
2017-06-20T09:35:36.084Z,51.90
2017-06-20T09:38:04.385Z,52.20
2017-06-20T09:40:31.929Z,52.10
2017-06-20T09:43:00.199Z,51.40
2017-06-20T09:45:28.493Z,53.30
2017-06-20T09:47:56.796Z,50.80
2017-06-20T09:50:25.104Z,51.20
2017-06-20T09:52:53.409Z,51.30
2017-06-20T09:55:20.925Z,51.30
2017-06-20T09:57:49.201Z,50.80
2017-06-20T10:00:17.505Z,51.20
2017-06-20T10:02:45.770Z,50.40
2017-06-20T10:05:13.314Z,50.40
2017-06-20T10:07:41.581Z,50.00
2017-06-20T10:10:09.881Z,50.10
2017-06-20T10:12:38.161Z,49.90
2017-06-20T10:15:06.448Z,48.80
2017-06-20T10:17:34.730Z,46.60
2017-06-20T10:20:03.001Z,48.60
2017-06-20T10:29:38.521Z,46.20
2017-06-20T10:32:06.791Z,48.10
2017-06-20T10:34:35.077Z,47.10
2017-06-20T10:37:04.364Z,46.00
2017-06-20T10:39:32.678Z,47.50
2017-06-20T10:42:00.946Z,46.60
2017-06-20T10:44:29.218Z,47.00
2017-06-20T10:46:57.551Z,46.40
2017-06-20T10:49:25.825Z,45.40
2017-06-20T10:51:54.100Z,44.40
2017-06-20T10:54:22.428Z,45.80
2017-06-20T10:56:50.711Z,46.00
2017-06-20T10:59:18.979Z,46.40
2017-06-20T11:01:47.272Z,45.70
2017-06-20T11:04:15.588Z,45.10
2017-06-20T11:06:43.908Z,44.30
2017-06-20T11:09:12.972Z,44.30
2017-06-20T11:11:41.269Z,45.10
2017-06-20T11:14:09.562Z,44.70
2017-06-20T11:16:37.832Z,45.50
2017-06-20T11:19:06.105Z,44.70
2017-06-20T11:21:34.402Z,44.70
2017-06-20T11:24:02.668Z,45.80
2017-06-20T11:26:30.970Z,43.90
2017-06-20T11:28:59.275Z,44.10
2017-06-20T11:31:27.545Z,43.90
2017-06-20T11:33:55.822Z,44.40
2017-06-20T11:36:24.117Z,42.80
2017-06-20T11:38:52.412Z,43.90
2017-06-20T11:41:20.680Z,42.70
2017-06-20T11:43:48.988Z,43.10
2017-06-20T11:46:17.261Z,43.50
2017-06-20T11:48:44.773Z,43.50
2017-06-20T11:51:13.067Z,44.50
2017-06-20T11:53:41.335Z,43.40
2017-06-20T11:56:09.629Z,43.30
2017-06-20T11:58:37.923Z,41.00
2017-06-20T12:01:06.193Z,39.90
2017-06-20T12:03:34.496Z,40.80
2017-06-20T12:06:02.770Z,38.90
2017-06-20T12:08:31.035Z,38.70
2017-06-20T12:10:59.324Z,38.90
2017-06-20T12:13:27.595Z,40.00
2017-06-20T12:15:55.902Z,40.20
2017-06-20T12:18:24.183Z,39.50
2017-06-20T12:20:52.448Z,40.70
2017-06-20T12:23:20.747Z,41.30
2017-06-20T12:25:49.041Z,41.90
2017-06-20T12:28:17.334Z,40.00
2017-06-20T12:30:45.620Z,41.40
2017-06-20T12:33:13.886Z,41.20
2017-06-20T12:35:42.146Z,40.00
2017-06-20T12:38:10.444Z,38.40
2017-06-20T12:40:38.721Z,38.50
2017-06-20T12:43:07.024Z,41.50
2017-06-20T12:45:35.285Z,38.90
2017-06-20T12:48:03.553Z,38.60
2017-06-20T12:50:31.846Z,40.90
2017-06-20T12:53:00.110Z,41.20
2017-06-20T12:55:28.393Z,39.60
2017-06-20T12:57:56.663Z,39.40
2017-06-20T13:00:24.207Z,39.40
2017-06-20T13:02:52.477Z,40.40
2017-06-20T13:05:20.746Z,39.00
2017-06-20T13:07:49.035Z,39.00
2017-06-20T13:10:17.300Z,40.00
2017-06-20T13:12:45.621Z,38.30
2017-06-20T13:15:13.889Z,40.60
2017-06-20T13:17:42.191Z,39.40
2017-06-20T13:20:10.484Z,37.50
2017-06-20T13:22:38.761Z,37.30
2017-06-20T13:35:07.444Z,39.90
2017-06-20T13:37:35.758Z,37.70
2017-06-20T13:40:04.037Z,38.50
2017-06-20T13:42:32.361Z,37.90
2017-06-20T13:45:01.301Z,38.60
2017-06-20T13:47:29.577Z,40.90
2017-06-20T13:49:57.878Z,39.20
2017-06-20T13:52:26.155Z,39.50
2017-06-20T13:54:53.669Z,39.40
2017-06-20T14:11:41.987Z,35.60
2017-06-20T14:14:10.299Z,38.30
2017-06-20T14:16:38.574Z,38.80
2017-06-20T14:19:06.840Z,40.70
2017-06-20T14:21:35.140Z,38.80
2017-06-20T14:24:03.409Z,38.50
2017-06-20T14:26:31.717Z,40.60
2017-06-20T14:28:59.989Z,40.50
2017-06-20T14:31:28.273Z,38.30
2017-06-20T14:33:56.594Z,39.10
2017-06-20T14:36:24.982Z,39.90
2017-06-20T14:38:53.273Z,40.20
2017-06-20T14:41:21.534Z,41.00
2017-06-20T14:43:49.869Z,40.80
2017-06-20T14:46:18.130Z,43.20
2017-06-20T14:48:46.429Z,40.10
2017-06-20T14:51:14.739Z,41.50
2017-06-20T14:53:43.010Z,41.00
2017-06-20T14:56:11.339Z,40.10
2017-06-20T14:58:38.872Z,40.20
2017-06-20T15:01:07.144Z,41.20
2017-06-20T15:03:35.445Z,41.60
2017-06-20T15:06:03.724Z,40.40
2017-06-20T15:08:32.026Z,42.10
2017-06-20T15:11:00.301Z,41.10
2017-06-20T15:13:28.604Z,42.20
2017-06-20T15:15:56.886Z,39.50
2017-06-20T15:18:25.173Z,39.80
2017-06-20T15:20:53.509Z,39.80
2017-06-20T15:23:21.786Z,40.90
2017-06-20T15:25:50.087Z,41.50
2017-06-20T15:28:18.356Z,40.30
2017-06-20T15:30:46.681Z,41.00
2017-06-20T15:33:14.944Z,42.00
2017-06-20T15:35:43.220Z,42.10
2017-06-20T15:38:11.497Z,42.40
2017-06-20T15:40:38.997Z,42.40
2017-06-20T15:43:07.295Z,41.40
2017-06-20T15:45:35.559Z,41.10
2017-06-20T15:48:03.876Z,41.30
2017-06-20T15:50:32.142Z,42.40
2017-06-20T15:53:00.419Z,40.50
2017-06-20T15:55:28.738Z,41.90
2017-06-20T15:57:57.021Z,41.80
2017-06-20T16:00:25.367Z,41.40
2017-06-20T16:02:53.632Z,42.80
2017-06-20T16:05:21.149Z,42.80
2017-06-20T16:07:49.453Z,42.00
2017-06-20T16:10:17.762Z,41.80
2017-06-20T16:12:46.032Z,41.60
2017-06-20T16:15:14.311Z,42.30
2017-06-20T16:17:42.608Z,43.20
2017-06-20T16:20:10.879Z,42.60
2017-06-20T16:22:39.180Z,41.90
2017-06-20T16:25:07.473Z,42.40
2017-06-20T16:27:35.776Z,44.20
2017-06-20T16:30:04.069Z,42.60
2017-06-20T16:32:32.354Z,43.50
2017-06-20T16:35:00.650Z,42.60
2017-06-20T16:37:28.916Z,43.30
2017-06-20T16:39:57.217Z,43.30
2017-06-20T16:42:25.480Z,43.60
2017-06-20T16:44:53.756Z,43.30
2017-06-20T16:47:22.042Z,43.00
2017-06-20T16:49:50.309Z,43.10
2017-06-20T16:52:18.610Z,44.20
2017-06-20T16:54:46.878Z,44.40
2017-06-20T16:57:15.188Z,44.50
2017-06-20T16:59:43.464Z,44.00
2017-06-20T17:02:11.771Z,44.50
2017-06-20T17:04:40.050Z,44.60
2017-06-20T17:07:08.318Z,44.80
2017-06-20T17:09:35.838Z,44.70
2017-06-20T17:12:04.126Z,45.50
2017-06-20T17:14:32.417Z,44.00
2017-06-20T17:17:00.678Z,45.10
2017-06-20T17:19:28.971Z,44.40
2017-06-20T17:21:57.246Z,44.00
2017-06-20T17:24:25.534Z,44.70
2017-06-20T17:26:53.830Z,44.90
2017-06-20T17:29:22.124Z,45.00
2017-06-20T17:31:50.394Z,44.90
2017-06-20T17:34:17.925Z,44.90
2017-06-20T17:36:46.193Z,44.30
2017-06-20T17:39:14.493Z,44.00
2017-06-20T17:41:42.752Z,44.10
2017-06-20T17:44:11.013Z,45.00
2017-06-20T17:46:39.302Z,44.90
2017-06-20T17:49:07.570Z,44.90
2017-06-20T17:51:35.858Z,45.60
2017-06-20T17:54:04.124Z,45.60
2017-06-20T17:56:32.404Z,44.70
2017-06-20T17:59:00.665Z,45.90
2017-06-20T18:01:29.076Z,46.10
2017-06-20T18:03:57.348Z,46.10
2017-06-20T18:06:25.616Z,46.40
2017-06-20T18:08:53.906Z,45.50
2017-06-20T18:11:22.182Z,46.10
2017-06-20T18:13:50.477Z,46.90
2017-06-20T18:16:18.749Z,46.50
2017-06-20T18:18:47.049Z,46.80
2017-06-20T18:21:15.313Z,47.00
2017-06-20T18:23:43.623Z,47.60
2017-06-20T18:26:11.153Z,47.60
2017-06-20T18:28:38.660Z,47.70
2017-06-20T18:31:06.959Z,48.40
2017-06-20T18:33:35.237Z,48.30
2017-06-20T18:36:03.510Z,48.70
2017-06-20T18:38:31.866Z,50.00
2017-06-20T18:41:00.159Z,50.50
2017-06-20T18:43:28.424Z,50.70
2017-06-20T18:45:56.729Z,51.00
2017-06-20T18:48:25.005Z,50.30
2017-06-20T18:50:53.278Z,51.30
2017-06-20T18:53:21.579Z,51.60
2017-06-20T18:55:49.854Z,53.60
2017-06-20T18:58:18.152Z,54.50
2017-06-20T19:00:46.416Z,54.00
2017-06-20T19:03:14.704Z,54.50
2017-06-20T19:05:42.973Z,54.90
2017-06-20T19:08:11.269Z,56.10
2017-06-20T19:10:39.535Z,54.20
2017-06-20T19:13:07.841Z,55.60
2017-06-20T19:15:36.108Z,56.50
2017-06-20T19:18:04.401Z,56.30
2017-06-20T19:20:32.670Z,55.90
2017-06-20T19:23:00.944Z,56.00
2017-06-20T19:25:29.241Z,55.90
2017-06-20T19:27:57.518Z,56.40
2017-06-20T19:30:25.818Z,56.30
2017-06-20T19:32:54.094Z,57.00
2017-06-20T19:35:22.386Z,56.80
2017-06-20T19:37:50.646Z,56.30
2017-06-20T19:40:18.941Z,56.50
2017-06-20T19:42:47.242Z,56.60
2017-06-20T19:45:15.507Z,55.90
2017-06-20T19:47:43.810Z,56.80
2017-06-20T19:50:12.078Z,57.40
2017-06-20T19:52:40.350Z,57.70
2017-06-20T19:55:08.644Z,57.10
2017-06-20T19:57:36.177Z,57.10
2017-06-20T20:00:04.453Z,57.20
2017-06-20T20:02:32.753Z,57.10
2017-06-20T20:05:01.024Z,56.80
2017-06-20T20:07:29.337Z,57.10
2017-06-20T20:09:56.873Z,57.10
2017-06-20T20:12:25.152Z,57.50
2017-06-20T20:14:52.686Z,57.40
2017-06-20T20:17:20.965Z,57.50
2017-06-20T20:19:49.260Z,57.20
2017-06-20T20:22:17.532Z,56.80
2017-06-20T20:24:45.832Z,57.00
2017-06-20T20:27:14.115Z,57.50
2017-06-20T20:29:42.388Z,57.00
2017-06-20T20:32:10.680Z,57.30
2017-06-20T20:34:38.985Z,57.60
2017-06-20T20:37:07.265Z,56.80
2017-06-20T20:39:35.540Z,56.80
2017-06-20T20:42:03.840Z,56.80
2017-06-20T20:44:32.113Z,56.40
2017-06-20T20:47:00.408Z,56.20
2017-06-20T20:49:28.669Z,56.40
2017-06-20T20:51:56.965Z,55.30
2017-06-20T20:54:25.237Z,55.70
2017-06-20T20:56:53.532Z,55.00
2017-06-20T20:59:21.829Z,55.20
2017-06-20T21:01:50.140Z,56.20
2017-06-20T21:04:18.412Z,56.00
2017-06-20T21:06:46.695Z,55.80
2017-06-20T21:09:15.029Z,56.60
2017-06-20T21:11:43.307Z,56.50
2017-06-20T21:14:11.578Z,56.40
2017-06-20T21:16:39.884Z,56.60
2017-06-20T21:19:08.152Z,55.20
2017-06-20T21:21:36.424Z,55.30
2017-06-20T21:24:04.721Z,56.00
2017-06-20T21:26:33.024Z,56.60
2017-06-20T21:29:01.298Z,56.60
2017-06-20T21:31:29.561Z,56.00
2017-06-20T21:33:57.860Z,57.40
2017-06-20T21:36:25.364Z,57.40
2017-06-20T21:38:53.665Z,56.10
2017-06-20T21:41:21.933Z,56.00
2017-06-20T21:43:50.240Z,57.10
2017-06-20T21:46:18.544Z,57.30
2017-06-20T21:48:46.809Z,57.60
2017-06-20T21:51:15.104Z,57.90
2017-06-20T21:53:43.377Z,56.70
2017-06-20T21:56:11.664Z,56.60
2017-06-20T21:58:39.930Z,56.90
2017-06-20T22:01:08.245Z,57.70
2017-06-20T22:03:36.504Z,57.40
2017-06-20T22:06:04.766Z,56.80
2017-06-20T22:08:33.080Z,56.50
2017-06-20T22:11:03.347Z,57.30
2017-06-20T22:13:31.672Z,57.70
2017-06-20T22:15:59.928Z,57.50
2017-06-20T22:18:28.196Z,58.20
2017-06-20T22:20:56.492Z,57.60
2017-06-20T22:23:24.752Z,57.10
2017-06-20T22:25:53.049Z,57.50
2017-06-20T22:28:21.321Z,56.40
2017-06-20T22:30:49.613Z,56.90
2017-06-20T22:33:17.878Z,57.90
2017-06-20T22:35:46.178Z,56.80
2017-06-20T22:38:13.680Z,56.80
2017-06-20T22:40:41.948Z,58.10
2017-06-20T22:43:10.232Z,58.10
2017-06-20T22:45:37.725Z,58.10
2017-06-20T22:48:06.017Z,57.80
2017-06-20T22:50:34.281Z,58.50
2017-06-20T22:53:02.568Z,57.30
2017-06-20T22:55:30.830Z,57.90
2017-06-20T22:57:59.156Z,58.40
2017-06-20T23:00:27.428Z,58.00
2017-06-20T23:02:55.705Z,57.50
2017-06-20T23:05:23.992Z,58.70
2017-06-20T23:07:52.277Z,57.60
2017-06-20T23:10:20.577Z,57.70
2017-06-20T23:12:48.843Z,58.00
2017-06-20T23:15:17.133Z,57.90
2017-06-20T23:17:45.409Z,58.20
2017-06-20T23:20:12.932Z,58.30
2017-06-20T23:22:41.200Z,57.20
2017-06-20T23:25:09.485Z,57.10
2017-06-20T23:27:37.777Z,57.40
2017-06-20T23:30:06.045Z,56.60
2017-06-20T23:32:34.334Z,56.30
2017-06-20T23:35:02.608Z,56.40
2017-06-20T23:37:30.901Z,57.60
2017-06-20T23:40:00.108Z,58.40
2017-06-20T23:42:28.393Z,58.30
2017-06-20T23:44:56.649Z,59.10
2017-06-20T23:47:24.941Z,58.40
2017-06-20T23:49:53.204Z,57.20
2017-06-20T23:52:21.501Z,58.70
2017-06-20T23:54:49.764Z,57.80
2017-06-20T23:57:18.068Z,58.20
2017-06-20T23:59:46.336Z,57.30
